createdAt,value
2017-11-29T00:01:37.057Z,14.90
2017-11-29T00:04:04.547Z,15.43
2017-11-29T00:06:32.791Z,16.60
2017-11-29T00:09:00.397Z,15.60
2017-11-29T00:11:27.905Z,16.73
2017-11-29T00:13:55.386Z,16.80
2017-11-29T00:16:22.850Z,16.40
2017-11-29T00:18:50.343Z,15.87
2017-11-29T00:21:17.800Z,18.33
2017-11-29T00:23:45.287Z,17.47
2017-11-29T00:26:12.790Z,14.67
2017-11-29T00:28:41.024Z,17.47
2017-11-29T00:31:08.515Z,15.50
2017-11-29T00:33:35.970Z,16.30
2017-11-29T00:36:03.454Z,16.40
2017-11-29T00:38:30.952Z,14.63
2017-11-29T00:40:58.414Z,15.50
2017-11-29T00:43:26.668Z,16.20
2017-11-29T00:45:54.151Z,16.73
2017-11-29T00:48:21.647Z,15.43
2017-11-29T00:50:49.154Z,14.40
2017-11-29T00:53:17.539Z,14.23
2017-11-29T00:55:45.070Z,14.67
2017-11-29T00:58:12.551Z,15.93
2017-11-29T01:00:40.039Z,15.70
2017-11-29T01:03:07.526Z,14.00
2017-11-29T01:05:34.990Z,13.63
2017-11-29T01:08:02.476Z,14.27
2017-11-29T01:10:29.935Z,12.20
2017-11-29T01:12:57.426Z,15.13
2017-11-29T01:15:24.894Z,14.23
2017-11-29T01:17:52.390Z,13.70
2017-11-29T01:20:19.977Z,14.27
2017-11-29T01:22:48.900Z,14.10
2017-11-29T01:25:17.228Z,14.33
2017-11-29T01:27:44.708Z,13.77
2017-11-29T01:30:12.567Z,14.10
2017-11-29T01:32:40.154Z,14.10
2017-11-29T01:35:07.664Z,13.67
2017-11-29T01:37:35.895Z,13.53
2017-11-29T01:40:03.358Z,14.07
2017-11-29T01:42:30.859Z,12.10
2017-11-29T01:44:59.103Z,13.20
2017-11-29T01:47:26.542Z,14.13
2017-11-29T01:49:54.055Z,15.67
2017-11-29T01:52:22.322Z,14.30
2017-11-29T01:54:49.791Z,14.60
2017-11-29T01:57:17.280Z,14.03
2017-11-29T01:59:44.777Z,15.07
2017-11-29T02:02:12.243Z,12.83
2017-11-29T02:04:39.718Z,12.60
2017-11-29T02:07:07.977Z,12.73
2017-11-29T02:09:35.428Z,13.00
2017-11-29T02:12:02.888Z,12.73
2017-11-29T02:14:30.379Z,12.50
2017-11-29T02:16:57.865Z,13.50
2017-11-29T02:19:25.362Z,13.57
2017-11-29T02:21:52.839Z,13.47
2017-11-29T02:24:20.285Z,13.27
2017-11-29T02:26:47.779Z,13.20
2017-11-29T02:29:15.253Z,13.17
2017-11-29T02:31:42.769Z,13.40
2017-11-29T02:34:11.031Z,13.87
2017-11-29T02:36:38.527Z,13.90
2017-11-29T02:39:05.983Z,15.10
2017-11-29T02:41:45.239Z,13.70
2017-11-29T02:44:12.708Z,13.90
2017-11-29T02:46:40.255Z,13.10
2017-11-29T02:49:07.819Z,13.93
2017-11-29T02:51:35.303Z,14.80
2017-11-29T02:54:02.790Z,15.60
2017-11-29T02:56:31.026Z,13.07
2017-11-29T02:58:58.491Z,13.33
2017-11-29T03:01:26.043Z,15.20
2017-11-29T03:03:53.587Z,15.00
2017-11-29T03:06:21.079Z,13.73
2017-11-29T03:08:48.551Z,13.77
2017-11-29T03:11:16.039Z,15.93
2017-11-29T03:13:44.279Z,16.53
2017-11-29T03:16:11.759Z,14.17
2017-11-29T03:18:40.150Z,14.00
2017-11-29T03:21:08.449Z,15.30
2017-11-29T03:23:35.924Z,12.00
2017-11-29T03:26:03.526Z,14.93
2017-11-29T03:28:31.039Z,14.00
2017-11-29T03:30:58.534Z,14.23
2017-11-29T03:33:26.021Z,15.70
2017-11-29T03:35:54.266Z,13.90
2017-11-29T03:38:21.721Z,12.97
2017-11-29T03:40:49.199Z,14.90
2017-11-29T03:43:16.653Z,14.30
2017-11-29T03:45:44.137Z,14.80
2017-11-29T03:48:12.391Z,14.40
2017-11-29T03:50:39.942Z,13.40
2017-11-29T03:53:07.403Z,13.37
2017-11-29T03:55:34.867Z,12.90
2017-11-29T03:58:02.318Z,13.60
2017-11-29T04:00:29.803Z,12.63
2017-11-29T04:02:58.018Z,13.97
2017-11-29T04:05:25.499Z,12.47
2017-11-29T04:07:53.143Z,13.80
2017-11-29T04:10:21.514Z,13.80
2017-11-29T04:12:49.030Z,14.10
2017-11-29T04:15:16.586Z,15.20
2017-11-29T04:17:44.806Z,13.10
2017-11-29T04:20:12.331Z,14.50
2017-11-29T04:22:40.549Z,16.60
2017-11-29T04:25:08.016Z,14.20
2017-11-29T04:27:36.264Z,14.17
2017-11-29T04:30:03.762Z,15.50
2017-11-29T04:32:31.223Z,15.30
2017-11-29T04:34:58.715Z,16.90
2017-11-29T04:37:26.996Z,15.43
2017-11-29T04:39:55.300Z,15.67
2017-11-29T04:42:22.778Z,16.60
2017-11-29T04:44:50.315Z,14.90
2017-11-29T04:47:17.779Z,15.80
2017-11-29T04:49:45.284Z,16.57
2017-11-29T04:52:12.790Z,15.30
2017-11-29T04:54:40.307Z,16.20
2017-11-29T04:57:08.543Z,15.07
2017-11-29T04:59:36.131Z,14.70
2017-11-29T05:02:03.623Z,15.40
2017-11-29T05:04:31.124Z,15.40
2017-11-29T05:06:58.651Z,15.47
2017-11-29T05:09:26.895Z,17.00
2017-11-29T05:11:54.482Z,16.80
2017-11-29T05:14:23.651Z,15.10
2017-11-29T05:16:51.120Z,17.20
2017-11-29T05:19:19.378Z,16.67
2017-11-29T05:21:46.846Z,18.10
2017-11-29T05:24:14.327Z,18.30
2017-11-29T05:26:41.832Z,15.33
2017-11-29T05:29:10.058Z,15.57
2017-11-29T05:31:38.282Z,16.27
2017-11-29T05:34:05.776Z,16.07
2017-11-29T05:36:33.327Z,16.97
2017-11-29T05:39:00.791Z,14.43
2017-11-29T05:41:28.298Z,16.67
2017-11-29T05:43:55.755Z,16.30
2017-11-29T05:46:24.574Z,16.83
2017-11-29T05:48:52.834Z,16.33
2017-11-29T05:51:20.303Z,16.87
2017-11-29T05:53:47.787Z,18.67
2017-11-29T05:56:15.256Z,18.47
2017-11-29T05:58:42.736Z,16.87
2017-11-29T06:01:10.979Z,18.07
2017-11-29T06:03:38.431Z,17.37
2017-11-29T06:06:06.821Z,18.33
2017-11-29T06:08:34.274Z,16.33
2017-11-29T06:11:01.825Z,21.03
2017-11-29T06:13:29.307Z,17.20
2017-11-29T06:15:56.799Z,17.70
2017-11-29T06:18:24.419Z,19.80
2017-11-29T06:20:51.878Z,19.00
2017-11-29T06:23:19.383Z,18.80
2017-11-29T06:25:46.848Z,16.53
2017-11-29T06:28:14.346Z,17.40
2017-11-29T06:30:41.852Z,20.80
2017-11-29T06:33:09.316Z,17.60
2017-11-29T06:35:36.860Z,18.27
2017-11-29T06:38:04.388Z,21.07
2017-11-29T06:40:31.868Z,18.77
2017-11-29T06:42:59.353Z,21.67
2017-11-29T06:45:26.835Z,19.60
2017-11-29T06:47:55.710Z,20.98
2017-11-29T06:50:23.448Z,20.43
2017-11-29T06:52:50.976Z,20.43
2017-11-29T06:55:18.435Z,17.80
2017-11-29T06:57:46.196Z,20.47
2017-11-29T07:00:13.673Z,22.27
2017-11-29T07:02:41.937Z,20.83
2017-11-29T07:05:09.427Z,21.77
2017-11-29T07:07:37.788Z,21.37
2017-11-29T07:10:06.039Z,22.87
2017-11-29T07:12:33.547Z,21.73
2017-11-29T07:15:01.009Z,22.27
2017-11-29T07:17:28.474Z,22.23
2017-11-29T07:19:55.948Z,21.90
2017-11-29T07:22:23.443Z,20.10
2017-11-29T07:24:50.906Z,23.20
2017-11-29T07:27:18.372Z,23.77
2017-11-29T07:29:46.643Z,21.63
2017-11-29T07:32:14.207Z,23.47
2017-11-29T07:34:41.674Z,21.30
2017-11-29T07:37:09.174Z,21.20
2017-11-29T07:39:36.637Z,21.47
2017-11-29T07:42:04.119Z,22.17
2017-11-29T07:44:31.603Z,22.60
2017-11-29T07:46:59.831Z,23.63
2017-11-29T07:49:27.319Z,25.77
2017-11-29T07:51:54.830Z,24.10
2017-11-29T07:54:22.327Z,24.43
2017-11-29T07:56:49.784Z,22.20
2017-11-29T07:59:17.279Z,25.70
2017-11-29T08:01:45.518Z,24.20
2017-11-29T08:04:13.001Z,22.83
2017-11-29T08:06:40.484Z,24.43
2017-11-29T08:09:08.144Z,24.67
2017-11-29T08:11:35.649Z,24.10
2017-11-29T08:14:03.110Z,24.50
2017-11-29T08:16:30.595Z,26.30
2017-11-29T08:18:58.166Z,24.17
2017-11-29T08:21:25.634Z,21.93
2017-11-29T08:23:53.895Z,24.50
2017-11-29T08:26:21.349Z,22.13
2017-11-29T08:28:49.607Z,24.53
2017-11-29T08:31:17.075Z,23.93
2017-11-29T08:33:44.567Z,24.37
2017-11-29T08:36:12.031Z,22.03
2017-11-29T08:38:39.527Z,24.33
2017-11-29T08:41:07.011Z,15.93
2017-11-29T08:43:34.475Z,19.77
2017-11-29T08:46:01.946Z,23.10
2017-11-29T08:48:30.208Z,15.43
2017-11-29T08:50:57.683Z,20.60
2017-11-29T08:53:25.163Z,20.30
2017-11-29T08:55:52.657Z,18.10
2017-11-29T08:58:20.151Z,20.03
2017-11-29T09:00:48.393Z,18.80
2017-11-29T09:03:15.882Z,19.67
2017-11-29T09:05:43.363Z,19.20
2017-11-29T09:08:10.847Z,16.57
2017-11-29T09:10:38.384Z,20.10
2017-11-29T09:13:05.845Z,18.80
2017-11-29T09:15:33.303Z,14.60
2017-11-29T09:18:00.814Z,19.30
2017-11-29T09:20:28.271Z,23.07
2017-11-29T09:22:56.522Z,21.70
2017-11-29T09:25:24.068Z,19.77
2017-11-29T09:27:51.544Z,21.67
2017-11-29T09:30:19.079Z,23.87
2017-11-29T09:32:46.535Z,18.20
2017-11-29T09:35:14.014Z,18.33
2017-11-29T09:37:41.494Z,18.80
2017-11-29T09:40:08.951Z,18.07
2017-11-29T09:42:36.478Z,18.60
2017-11-29T09:45:03.963Z,15.13
2017-11-29T09:47:31.442Z,18.13
2017-11-29T09:49:58.927Z,20.27
2017-11-29T09:52:26.448Z,15.73
2017-11-29T09:54:53.906Z,15.97
2017-11-29T09:57:21.387Z,11.87
2017-11-29T09:59:48.954Z,16.83
2017-11-29T10:02:16.529Z,16.67
2017-11-29T10:04:43.996Z,17.27
2017-11-29T10:07:11.547Z,16.55
2017-11-29T10:09:39.821Z,16.67
2017-11-29T10:12:08.078Z,17.80
2017-11-29T10:14:35.539Z,15.60
2017-11-29T10:17:03.071Z,15.97
2017-11-29T10:19:30.599Z,19.30
2017-11-29T10:21:58.076Z,15.87
2017-11-29T10:24:25.561Z,15.63
2017-11-29T10:26:53.028Z,14.27
2017-11-29T10:29:20.589Z,14.97
2017-11-29T10:31:48.055Z,17.40
2017-11-29T10:34:15.591Z,13.70
2017-11-29T10:36:43.071Z,14.70
2017-11-29T10:39:11.305Z,15.30
2017-11-29T10:41:38.867Z,13.83
2017-11-29T10:44:06.346Z,13.57
2017-11-29T10:46:33.872Z,16.13
2017-11-29T10:49:01.328Z,14.80
2017-11-29T10:51:28.991Z,15.00
2017-11-29T10:53:56.495Z,16.13
2017-11-29T10:56:23.970Z,15.17
2017-11-29T10:58:52.243Z,12.67
2017-11-29T11:01:19.772Z,17.17
2017-11-29T11:03:47.251Z,15.93
2017-11-29T11:06:14.752Z,17.00
2017-11-29T11:08:42.212Z,13.67
2017-11-29T11:11:09.715Z,16.07
2017-11-29T11:13:37.176Z,19.57
2017-11-29T11:16:04.724Z,15.53
2017-11-29T11:18:32.200Z,15.70
2017-11-29T11:20:59.698Z,15.27
2017-11-29T11:23:27.159Z,16.87
2017-11-29T11:25:54.644Z,15.80
2017-11-29T11:28:22.129Z,18.47
2017-11-29T11:30:49.595Z,15.57
2017-11-29T11:33:17.088Z,16.47
2017-11-29T11:35:45.311Z,17.70
2017-11-29T11:38:12.800Z,14.10
2017-11-29T11:40:41.069Z,16.30
2017-11-29T11:43:08.578Z,17.10
2017-11-29T11:45:36.073Z,16.90
2017-11-29T11:48:03.539Z,16.77
2017-11-29T11:50:32.394Z,16.27
2017-11-29T11:52:59.864Z,17.87
2017-11-29T11:55:27.340Z,16.87
2017-11-29T11:57:54.817Z,15.17
2017-11-29T12:00:22.287Z,14.50
2017-11-29T12:02:49.779Z,14.93
2017-11-29T12:05:17.244Z,16.60
2017-11-29T12:07:44.742Z,18.00
2017-11-29T12:10:12.235Z,20.60
2017-11-29T12:12:40.482Z,19.40
2017-11-29T12:15:07.934Z,17.73
2017-11-29T12:17:35.431Z,18.10
2017-11-29T12:20:02.881Z,15.00
2017-11-29T12:22:31.138Z,16.17
2017-11-29T12:24:58.643Z,16.80
2017-11-29T12:27:26.159Z,17.20
2017-11-29T12:29:53.646Z,14.80
2017-11-29T12:32:21.095Z,15.30
2017-11-29T12:34:48.584Z,14.70
2017-11-29T12:37:16.164Z,13.80
2017-11-29T12:39:43.663Z,14.50
2017-11-29T12:42:11.115Z,14.97
2017-11-29T12:44:39.408Z,15.87
2017-11-29T12:47:06.913Z,15.57
2017-11-29T12:49:46.263Z,14.40
2017-11-29T12:52:13.747Z,15.20
2017-11-29T12:54:41.982Z,14.60
2017-11-29T12:57:09.577Z,16.50
2017-11-29T12:59:37.086Z,16.80
2017-11-29T13:02:04.615Z,17.10
2017-11-29T13:04:33.867Z,15.97
2017-11-29T13:07:01.389Z,16.90
2017-11-29T13:09:28.868Z,16.40
2017-11-29T13:11:56.339Z,15.67
2017-11-29T13:14:23.828Z,17.30
2017-11-29T13:16:51.318Z,16.73
2017-11-29T13:19:18.794Z,12.90
2017-11-29T13:21:46.271Z,13.40
2017-11-29T13:24:13.731Z,13.70
2017-11-29T13:26:41.218Z,13.37
2017-11-29T13:29:08.716Z,13.60
2017-11-29T13:31:36.963Z,14.10
2017-11-29T13:34:05.250Z,13.30
2017-11-29T13:36:34.410Z,12.97
2017-11-29T13:39:01.879Z,14.33
2017-11-29T13:41:29.368Z,13.57
2017-11-29T13:43:56.899Z,15.33
2017-11-29T13:46:25.174Z,15.30
2017-11-29T13:48:52.640Z,14.87
2017-11-29T13:51:20.130Z,13.33
2017-11-29T13:53:47.618Z,13.20
2017-11-29T13:56:15.129Z,14.52
2017-11-29T13:58:42.587Z,14.57
2017-11-29T14:01:10.088Z,13.60
2017-11-29T14:03:37.609Z,14.83
2017-11-29T14:06:05.891Z,14.30
2017-11-29T14:08:35.126Z,15.03
2017-11-29T14:11:02.580Z,14.80
2017-11-29T14:13:30.083Z,14.97
2017-11-29T14:15:57.558Z,15.32
2017-11-29T14:18:25.787Z,20.80
2017-11-29T14:20:53.376Z,14.67
2017-11-29T14:23:20.887Z,22.00
2017-11-29T14:25:48.422Z,22.60
2017-11-29T14:28:16.640Z,25.00
2017-11-29T14:30:44.244Z,22.60
2017-11-29T14:33:11.802Z,14.70
2017-11-29T14:35:39.270Z,17.43
2017-11-29T14:38:07.529Z,16.33
2017-11-29T14:40:35.017Z,15.73
2017-11-29T14:43:02.496Z,13.97
2017-11-29T14:45:29.990Z,13.67
2017-11-29T14:47:57.466Z,13.60
2017-11-29T14:50:24.935Z,14.10
2017-11-29T14:52:53.732Z,12.73
2017-11-29T14:55:21.212Z,13.33
2017-11-29T14:57:49.514Z,14.73
2017-11-29T15:00:17.000Z,20.47
2017-11-29T15:02:44.454Z,14.90
2017-11-29T15:05:11.927Z,14.20
2017-11-29T15:07:39.407Z,13.70
2017-11-29T15:10:07.625Z,14.87
2017-11-29T15:12:35.466Z,16.23
2017-11-29T15:15:02.919Z,14.63
2017-11-29T15:17:30.406Z,15.40
2017-11-29T15:19:57.872Z,13.87
2017-11-29T15:22:25.327Z,15.93
2017-11-29T15:24:52.871Z,14.40
2017-11-29T15:27:20.372Z,16.83
2017-11-29T15:29:47.892Z,14.03
2017-11-29T15:32:15.387Z,15.73
2017-11-29T15:34:42.887Z,16.47
2017-11-29T15:37:10.357Z,16.40
2017-11-29T15:39:37.844Z,15.03
2017-11-29T15:42:06.832Z,14.48
2017-11-29T15:44:34.320Z,14.70
2017-11-29T15:47:01.813Z,14.70
2017-11-29T15:49:29.295Z,14.80
2017-11-29T15:51:56.757Z,15.83
2017-11-29T15:54:24.232Z,15.17
2017-11-29T15:56:51.736Z,15.27
2017-11-29T15:59:19.227Z,17.40
2017-11-29T16:01:46.703Z,18.87
2017-11-29T16:04:14.175Z,19.13
2017-11-29T16:06:41.708Z,19.83
2017-11-29T16:09:09.354Z,18.67
2017-11-29T16:11:36.848Z,18.47
2017-11-29T16:14:04.343Z,18.13
2017-11-29T16:16:31.870Z,22.17
2017-11-29T16:18:59.431Z,24.20
2017-11-29T16:21:26.913Z,22.70
2017-11-29T16:23:55.173Z,24.47
2017-11-29T16:26:22.651Z,20.10
2017-11-29T16:28:50.104Z,20.97
2017-11-29T16:31:17.626Z,18.50
2017-11-29T16:33:45.092Z,19.07
2017-11-29T16:36:12.576Z,18.20
2017-11-29T16:38:40.096Z,18.23
2017-11-29T16:41:07.551Z,17.63
2017-11-29T16:43:35.028Z,21.30
2017-11-29T16:46:02.496Z,18.10
2017-11-29T16:48:29.990Z,18.70
2017-11-29T16:50:58.221Z,17.47
2017-11-29T16:53:25.702Z,17.80
2017-11-29T16:55:53.153Z,18.37
2017-11-29T16:58:20.611Z,18.03
2017-11-29T17:00:48.095Z,15.70
2017-11-29T17:03:15.570Z,19.13
2017-11-29T17:05:43.027Z,18.07
2017-11-29T17:08:10.506Z,17.97
2017-11-29T17:10:38.080Z,18.30
2017-11-29T17:13:05.557Z,18.20
2017-11-29T17:15:33.021Z,18.20
2017-11-29T17:18:00.601Z,18.23
2017-11-29T17:20:28.086Z,19.17
2017-11-29T17:22:55.564Z,20.63
2017-11-29T17:25:23.015Z,17.03
2017-11-29T17:27:50.535Z,19.07
2017-11-29T17:30:17.994Z,21.27
2017-11-29T17:32:46.257Z,18.60
2017-11-29T17:35:13.710Z,20.37
2017-11-29T17:37:41.178Z,13.50
2017-11-29T17:40:08.671Z,15.27
2017-11-29T17:42:36.135Z,15.37
2017-11-29T17:45:03.652Z,16.57
2017-11-29T17:47:31.971Z,15.57
2017-11-29T17:49:59.441Z,15.10
2017-11-29T17:52:26.891Z,13.93
2017-11-29T17:54:54.373Z,15.93
2017-11-29T17:57:21.846Z,13.03
2017-11-29T17:59:49.318Z,16.27
2017-11-29T18:02:16.796Z,13.77
2017-11-29T18:04:44.280Z,17.27
2017-11-29T18:07:11.779Z,16.50
2017-11-29T18:09:39.339Z,16.20
2017-11-29T18:12:06.815Z,17.40
2017-11-29T18:14:34.262Z,17.77
2017-11-29T18:17:01.946Z,20.27
2017-11-29T18:19:29.685Z,18.30
2017-11-29T18:21:58.438Z,19.60
2017-11-29T18:24:27.387Z,18.00
2017-11-29T18:26:55.074Z,17.50
2017-11-29T18:29:22.641Z,16.93
2017-11-29T18:31:50.878Z,19.83
2017-11-29T18:34:18.690Z,19.07
2017-11-29T18:36:46.475Z,17.23
2017-11-29T18:39:14.541Z,15.93
2017-11-29T18:41:42.026Z,17.10
2017-11-29T18:44:09.552Z,16.73
2017-11-29T18:46:37.107Z,17.20
2017-11-29T18:49:04.606Z,17.73
2017-11-29T18:51:32.107Z,15.60
2017-11-29T18:53:59.570Z,16.97
2017-11-29T18:56:27.054Z,15.83
2017-11-29T18:58:55.339Z,24.70
2017-11-29T19:01:23.683Z,16.97
2017-11-29T19:03:51.911Z,17.60
2017-11-29T19:06:20.167Z,17.43
2017-11-29T19:08:47.631Z,17.30
2017-11-29T19:11:15.110Z,17.63
2017-11-29T19:13:42.570Z,18.37
2017-11-29T19:16:10.118Z,16.37
2017-11-29T19:18:37.590Z,18.33
2017-11-29T19:21:05.067Z,17.20
2017-11-29T19:23:32.538Z,17.40
2017-11-29T19:26:00.773Z,20.77
2017-11-29T19:28:28.234Z,16.00
2017-11-29T19:30:55.713Z,18.63
2017-11-29T19:33:23.202Z,17.67
2017-11-29T19:35:50.665Z,17.43
2017-11-29T19:38:18.273Z,16.73
2017-11-29T19:40:45.939Z,17.00
2017-11-29T19:43:13.548Z,16.67
2017-11-29T19:45:41.047Z,16.30
2017-11-29T19:48:09.500Z,20.00
2017-11-29T19:50:36.986Z,19.13
2017-11-29T19:53:04.440Z,20.70
2017-11-29T19:55:32.170Z,21.80
2017-11-29T19:58:01.004Z,20.87
2017-11-29T20:00:28.521Z,21.63
2017-11-29T20:02:57.037Z,23.43
2017-11-29T20:05:24.699Z,21.77
2017-11-29T20:07:52.178Z,18.20
2017-11-29T20:10:19.779Z,21.80
2017-11-29T20:12:47.441Z,27.37
2017-11-29T20:15:15.912Z,19.90
2017-11-29T20:17:43.805Z,18.70
2017-11-29T20:20:11.827Z,17.03
2017-11-29T20:22:41.421Z,18.43
2017-11-29T20:25:09.003Z,16.77
2017-11-29T20:27:36.785Z,20.03
2017-11-29T20:30:04.427Z,16.87
2017-11-29T20:32:32.823Z,19.20
2017-11-29T20:35:01.243Z,18.80
2017-11-29T20:37:29.624Z,18.27
2017-11-29T20:39:58.133Z,19.47
2017-11-29T20:42:26.943Z,17.80
2017-11-29T20:44:54.881Z,19.37
2017-11-29T20:47:22.355Z,19.20
2017-11-29T20:49:50.033Z,20.40
2017-11-29T20:52:29.344Z,18.97
2017-11-29T20:54:56.840Z,20.63
2017-11-29T20:57:24.300Z,22.90
2017-11-29T20:59:52.721Z,19.20
2017-11-29T21:02:20.717Z,23.90
2017-11-29T21:04:48.360Z,24.07
2017-11-29T21:07:15.922Z,22.43
2017-11-29T21:09:43.678Z,17.33
2017-11-29T21:12:11.522Z,14.37
2017-11-29T21:14:39.181Z,19.20
2017-11-29T21:17:06.933Z,19.77
2017-11-29T21:19:35.658Z,16.87
2017-11-29T21:22:03.455Z,18.30
2017-11-29T21:24:31.265Z,16.87
2017-11-29T21:26:58.970Z,18.03
2017-11-29T21:29:26.646Z,21.77
2017-11-29T21:31:54.372Z,18.23
2017-11-29T21:34:22.049Z,19.00
2017-11-29T21:36:49.575Z,18.80
2017-11-29T21:39:17.827Z,17.43
2017-11-29T21:41:45.282Z,18.97
2017-11-29T21:44:12.795Z,18.90
2017-11-29T21:46:40.267Z,17.80
2017-11-29T21:49:07.752Z,18.07
2017-11-29T21:51:35.297Z,17.67
2017-11-29T21:54:02.815Z,19.30
2017-11-29T21:56:30.279Z,20.30
2017-11-29T21:58:57.760Z,18.23
2017-11-29T22:01:25.227Z,19.47
2017-11-29T22:03:52.726Z,19.13
2017-11-29T22:06:20.186Z,19.30
2017-11-29T22:08:48.422Z,17.50
2017-11-29T22:11:16.672Z,19.23
2017-11-29T22:13:44.171Z,20.07
2017-11-29T22:16:12.840Z,19.95
2017-11-29T22:18:40.291Z,19.27
2017-11-29T22:21:07.790Z,17.67
2017-11-29T22:23:35.317Z,20.13
2017-11-29T22:26:02.828Z,18.47
2017-11-29T22:28:30.303Z,20.93
2017-11-29T22:30:57.765Z,19.60
2017-11-29T22:33:25.271Z,19.87
2017-11-29T22:35:53.642Z,18.93
2017-11-29T22:38:21.107Z,18.60
2017-11-29T22:40:48.566Z,18.33
2017-11-29T22:43:16.079Z,17.90
2017-11-29T22:45:43.538Z,18.30
2017-11-29T22:48:11.019Z,18.70
2017-11-29T22:50:39.278Z,20.17
2017-11-29T22:53:06.754Z,19.47
2017-11-29T22:55:34.318Z,21.17
2017-11-29T22:58:01.770Z,21.60
2017-11-29T23:00:29.287Z,21.27
2017-11-29T23:02:56.748Z,18.77
2017-11-29T23:05:24.982Z,20.17
2017-11-29T23:07:52.470Z,20.70
2017-11-29T23:10:19.926Z,20.30
2017-11-29T23:12:47.426Z,19.57
2017-11-29T23:15:14.987Z,20.13
2017-11-29T23:17:43.692Z,20.95
2017-11-29T23:20:11.175Z,21.23
2017-11-29T23:22:38.759Z,21.30
2017-11-29T23:25:07.074Z,21.17
2017-11-29T23:27:34.696Z,20.67
2017-11-29T23:30:02.999Z,21.70
2017-11-29T23:32:30.485Z,20.90
2017-11-29T23:34:58.001Z,22.07
2017-11-29T23:37:26.267Z,21.70
2017-11-29T23:39:53.745Z,20.60
2017-11-29T23:42:21.251Z,20.03
2017-11-29T23:44:48.709Z,22.73
2017-11-29T23:47:16.217Z,21.70
2017-11-29T23:49:44.438Z,20.47
2017-11-29T23:52:11.888Z,22.27
2017-11-29T23:54:39.535Z,21.97
2017-11-29T23:57:07.063Z,21.03
2017-11-29T23:59:35.306Z,21.30
